Time;durP1;ratioP1;P1;durP2;ratioP2;P2;SDS_P1;SDS_P2;PMS_P1;PMS_P2;Temp;Humidity;BMP_temperature;BMP_pressure;BME280_temperature;BME280_humidity;BME280_pressure;Samples;Min_cycle;Max_cycle;Signal;HPM_P1;HPM_P2
2023/12/15 00:01:42;;;;;;;33.37;20.73;;;4.40;99.90;;;;;;5088953;28;20547;-68
2023/12/15 00:04:11;;;;;;;29.80;20.43;;;4.40;99.90;;;;;;5089136;28;20450;-68
2023/12/15 00:06:38;;;;;;;31.43;20.47;;;4.40;99.90;;;;;;5090203;28;20509;-69
2023/12/15 00:09:05;;;;;;;30.67;20.67;;;4.30;99.90;;;;;;5090181;28;20535;-68
2023/12/15 00:11:33;;;;;;;30.50;22.23;;;4.30;99.90;;;;;;5088258;28;20493;-68
2023/12/15 00:14:00;;;;;;;27.90;19.10;;;4.20;99.90;;;;;;5088788;28;20965;-68
2023/12/15 00:16:27;;;;;;;28.40;19.40;;;4.10;99.90;;;;;;5087546;28;20493;-68
2023/12/15 00:18:54;;;;;;;34.23;20.77;;;4.00;99.90;;;;;;5088935;28;20485;-68
2023/12/15 00:21:24;;;;;;;32.80;20.37;;;4.00;99.90;;;;;;5088601;28;20536;-68
2023/12/15 00:23:51;;;;;;;31.40;20.77;;;4.00;99.90;;;;;;5088881;28;20469;-68
2023/12/15 00:26:18;;;;;;;32.80;20.67;;;4.00;99.90;;;;;;5090319;28;20543;-68
2023/12/15 00:28:48;;;;;;;32.50;22.87;;;4.00;99.90;;;;;;5090181;28;20540;-68
2023/12/15 00:31:15;;;;;;;30.20;20.60;;;4.10;99.90;;;;;;5089266;28;20524;-68
2023/12/15 00:33:42;;;;;;;32.97;22.00;;;4.10;99.90;;;;;;5088686;28;20461;-67
2023/12/15 00:36:10;;;;;;;34.00;22.60;;;4.10;99.90;;;;;;5089112;28;20591;-68
2023/12/15 00:38:39;;;;;;;35.17;21.93;;;4.10;99.90;;;;;;5087751;28;20986;-68
2023/12/15 00:41:06;;;;;;;34.80;23.67;;;4.10;99.90;;;;;;5087889;28;20461;-68
2023/12/15 00:43:33;;;;;;;33.50;23.20;;;4.10;99.90;;;;;;5088962;28;20494;-68
2023/12/15 00:46:01;;;;;;;39.17;25.20;;;4.20;99.90;;;;;;5087802;28;20521;-68
2023/12/15 00:48:28;;;;;;;37.13;23.20;;;4.20;99.90;;;;;;5088066;28;20555;-68
2023/12/15 00:50:56;;;;;;;37.63;22.60;;;4.30;99.90;;;;;;5089444;28;20489;-68
2023/12/15 00:53:23;;;;;;;33.57;21.30;;;4.20;99.90;;;;;;5088219;28;20877;-68
2023/12/15 00:55:52;;;;;;;34.87;23.50;;;4.20;99.90;;;;;;5087739;28;20489;-68
2023/12/15 00:58:19;;;;;;;35.03;23.10;;;4.20;99.90;;;;;;5088084;28;20552;-68
2023/12/15 01:00:46;;;;;;;39.17;23.10;;;4.30;99.90;;;;;;5086404;28;20530;-68
2023/12/15 01:03:13;;;;;;;36.53;23.77;;;4.30;99.90;;;;;;5087630;28;20497;-68
2023/12/15 01:05:41;;;;;;;37.40;24.33;;;4.30;99.90;;;;;;5088221;28;20573;-68
2023/12/15 01:08:08;;;;;;;35.70;22.83;;;4.40;99.90;;;;;;5086541;28;20520;-68
2023/12/15 01:10:35;;;;;;;34.60;23.70;;;4.40;99.90;;;;;;5088585;28;20492;-68
2023/12/15 01:13:04;;;;;;;35.23;22.43;;;4.40;99.90;;;;;;5087543;28;20894;-68
2023/12/15 01:15:32;;;;;;;38.43;24.63;;;4.40;99.90;;;;;;5087755;28;20540;-68
2023/12/15 01:18:00;;;;;;;36.80;25.10;;;4.40;99.90;;;;;;5090242;28;20541;-68
2023/12/15 01:20:27;;;;;;;36.00;23.90;;;4.50;99.90;;;;;;5090459;28;20457;-68
2023/12/15 01:22:54;;;;;;;35.97;25.23;;;4.50;99.90;;;;;;5088470;28;20557;-68
2023/12/15 01:25:22;;;;;;;36.63;23.20;;;4.50;99.90;;;;;;5088208;28;20841;-69
2023/12/15 01:27:49;;;;;;;30.90;22.97;;;4.50;99.90;;;;;;5087738;28;20518;-68
2023/12/15 01:30:18;;;;;;;34.33;22.17;;;4.50;99.90;;;;;;5089927;28;20486;-69
2023/12/15 01:32:45;;;;;;;35.60;22.43;;;4.50;99.90;;;;;;5090715;28;20520;-69
2023/12/15 01:35:12;;;;;;;35.63;23.07;;;4.60;99.90;;;;;;5087740;28;20556;-68
2023/12/15 01:37:40;;;;;;;36.27;22.43;;;4.60;99.90;;;;;;5086466;28;20556;-68
2023/12/15 01:40:08;;;;;;;34.00;22.57;;;4.60;99.90;;;;;;5087695;28;20522;-68
2023/12/15 01:42:36;;;;;;;42.93;26.20;;;4.60;99.90;;;;;;5089797;28;20487;-69
2023/12/15 01:45:03;;;;;;;38.23;22.00;;;4.60;99.90;;;;;;5089111;28;20524;-68
2023/12/15 01:47:32;;;;;;;36.03;24.97;;;4.70;99.90;;;;;;5088033;28;20525;-69
2023/12/15 01:50:00;;;;;;;39.37;24.93;;;4.70;99.90;;;;;;5089111;28;20481;-68
2023/12/15 01:52:28;;;;;;;35.93;22.93;;;4.70;99.90;;;;;;5089176;28;20492;-68
2023/12/15 01:54:55;;;;;;;38.73;24.33;;;4.70;99.90;;;;;;5088869;28;20532;-68
2023/12/15 01:57:23;;;;;;;30.97;23.00;;;4.80;99.90;;;;;;5088350;28;20580;-69
2023/12/15 01:59:50;;;;;;;39.83;25.27;;;4.80;99.90;;;;;;5086151;28;20543;-67
2023/12/15 02:02:17;;;;;;;37.50;25.30;;;4.80;99.90;;;;;;5087815;28;20532;-68
2023/12/15 02:04:47;;;;;;;35.50;24.73;;;4.90;99.90;;;;;;5088179;28;20819;-68
2023/12/15 02:07:14;;;;;;;33.03;24.93;;;4.90;99.90;;;;;;5089435;28;20476;-68
2023/12/15 02:09:42;;;;;;;36.73;25.27;;;4.80;99.90;;;;;;5090029;28;20558;-69
2023/12/15 02:12:09;;;;;;;40.73;26.70;;;4.90;99.90;;;;;;5089441;28;20461;-68
2023/12/15 02:14:36;;;;;;;35.77;24.10;;;4.90;99.90;;;;;;5089916;28;20461;-68
2023/12/15 02:17:04;;;;;;;38.00;25.87;;;4.90;99.90;;;;;;5090917;28;20564;-69
2023/12/15 02:19:31;;;;;;;33.90;24.73;;;4.90;99.90;;;;;;5089305;28;20481;-69
2023/12/15 02:22:00;;;;;;;40.07;24.60;;;4.90;99.90;;;;;;5092605;28;20490;-69
2023/12/15 02:24:31;;;;;;;38.00;26.60;;;4.90;99.90;;;;;;5095727;28;20465;-69
2023/12/15 02:26:58;;;;;;;35.63;25.40;;;5.00;99.90;;;;;;5094374;28;20567;-69
2023/12/15 02:29:27;;;;;;;39.77;24.90;;;5.00;99.90;;;;;;5094688;28;20551;-68
2023/12/15 02:31:54;;;;;;;39.37;27.60;;;5.00;99.90;;;;;;5094774;28;20499;-69
2023/12/15 02:34:24;;;;;;;37.53;27.40;;;5.00;99.90;;;;;;5094630;28;20453;-69
2023/12/15 02:36:52;;;;;;;41.87;27.77;;;5.10;99.90;;;;;;5094654;28;20489;-69
2023/12/15 02:39:19;;;;;;;38.27;27.10;;;5.00;99.90;;;;;;5093299;28;20524;-68
2023/12/15 02:41:48;;;;;;;42.90;28.73;;;5.00;99.90;;;;;;5095815;28;20485;-68
2023/12/15 02:44:15;;;;;;;39.47;27.50;;;5.00;99.90;;;;;;5094120;28;20520;-69
2023/12/15 02:46:43;;;;;;;36.57;26.10;;;5.00;99.90;;;;;;5090809;28;20544;-68
2023/12/15 02:49:10;;;;;;;36.73;25.50;;;5.00;99.90;;;;;;5092855;28;20457;-68
2023/12/15 02:51:37;;;;;;;38.70;27.00;;;5.00;99.90;;;;;;5092892;28;20492;-69
2023/12/15 02:54:04;;;;;;;36.83;26.00;;;5.00;99.90;;;;;;5091047;28;20548;-68
2023/12/15 02:56:32;;;;;;;29.17;23.70;;;5.10;99.90;;;;;;5093029;28;20500;-68
2023/12/15 02:59:00;;;;;;;35.60;24.10;;;5.10;99.90;;;;;;5090304;28;20528;-68
2023/12/15 03:01:28;;;;;;;33.87;24.33;;;5.20;99.90;;;;;;5091163;28;20492;-70
2023/12/15 03:03:55;;;;;;;34.20;25.63;;;5.20;99.90;;;;;;5089711;28;20552;-68
2023/12/15 03:06:23;;;;;;;33.97;24.97;;;5.20;99.90;;;;;;5090099;28;20521;-68
2023/12/15 03:08:50;;;;;;;40.07;27.83;;;5.20;99.90;;;;;;5088797;28;20579;-68
2023/12/15 03:11:17;;;;;;;33.40;24.67;;;5.20;99.90;;;;;;5090676;28;20524;-68
2023/12/15 03:13:44;;;;;;;35.03;25.07;;;5.20;99.90;;;;;;5091707;28;20535;-68
2023/12/15 03:16:13;;;;;;;38.50;28.40;;;5.20;99.90;;;;;;5089505;28;20555;-68
2023/12/15 03:18:41;;;;;;;38.37;28.03;;;5.20;99.90;;;;;;5087719;28;20467;-67
2023/12/15 03:21:08;;;;;;;41.70;26.40;;;5.20;99.90;;;;;;5087061;28;20477;-67
2023/12/15 03:23:35;;;;;;;37.63;24.63;;;5.10;99.90;;;;;;5086267;28;20560;-66
2023/12/15 03:26:02;;;;;;;41.60;27.87;;;5.10;99.90;;;;;;5086018;28;20508;-65
2023/12/15 03:28:29;;;;;;;37.37;26.90;;;5.10;99.90;;;;;;5086307;28;20467;-66
2023/12/15 03:30:57;;;;;;;44.00;27.57;;;5.10;99.90;;;;;;5085760;28;20962;-66
2023/12/15 03:33:26;;;;;;;34.37;24.40;;;5.10;99.90;;;;;;5085340;28;20747;-65
2023/12/15 03:35:53;;;;;;;42.10;26.30;;;5.10;99.90;;;;;;5085699;28;20482;-65
2023/12/15 03:38:21;;;;;;;39.13;26.67;;;5.10;99.90;;;;;;5086494;28;20553;-66
2023/12/15 03:40:49;;;;;;;37.93;23.50;;;5.20;99.90;;;;;;5086412;28;20552;-66
2023/12/15 03:43:16;;;;;;;34.80;25.20;;;5.10;99.90;;;;;;5087184;28;20555;-66
2023/12/15 03:45:43;;;;;;;37.90;26.17;;;5.10;99.90;;;;;;5086795;28;20842;-66
2023/12/15 03:48:10;;;;;;;39.13;25.87;;;5.20;99.90;;;;;;5087852;28;20453;-66
2023/12/15 03:50:39;;;;;;;34.07;26.23;;;5.20;99.90;;;;;;5086472;28;20912;-66
2023/12/15 03:53:06;;;;;;;38.07;27.40;;;5.20;99.90;;;;;;5086805;28;20464;-66
2023/12/15 03:55:33;;;;;;;37.77;28.00;;;5.20;99.90;;;;;;5086943;28;20442;-66
2023/12/15 03:58:00;;;;;;;35.43;26.27;;;5.20;99.90;;;;;;5087403;28;20583;-66
2023/12/15 04:00:29;;;;;;;34.00;24.73;;;5.20;99.90;;;;;;5087171;28;20862;-66
2023/12/15 04:02:56;;;;;;;42.27;25.63;;;5.20;99.90;;;;;;5088341;28;20520;-67
2023/12/15 04:05:23;;;;;;;41.03;26.17;;;5.30;99.90;;;;;;5087612;28;20468;-67
2023/12/15 04:07:51;;;;;;;39.70;24.83;;;5.30;99.90;;;;;;5087336;28;20489;-67
2023/12/15 04:10:18;;;;;;;37.20;24.60;;;5.30;99.90;;;;;;5087993;28;20462;-66
2023/12/15 04:12:46;;;;;;;34.50;23.23;;;5.30;99.90;;;;;;5087968;28;20525;-66
2023/12/15 04:15:13;;;;;;;40.53;24.80;;;5.30;99.90;;;;;;5088102;28;20461;-67
2023/12/15 04:17:42;;;;;;;33.73;22.63;;;5.40;99.90;;;;;;5089227;28;20531;-67
2023/12/15 04:20:10;;;;;;;33.70;23.10;;;5.40;99.90;;;;;;5088482;28;20813;-67
2023/12/15 04:22:37;;;;;;;38.00;25.77;;;5.40;99.90;;;;;;5088286;28;20557;-67
2023/12/15 04:25:06;;;;;;;33.67;25.70;;;5.40;99.90;;;;;;5087630;28;20443;-67
2023/12/15 04:27:33;;;;;;;38.13;26.73;;;5.40;99.90;;;;;;5087704;28;20485;-67
2023/12/15 04:30:01;;;;;;;35.53;24.60;;;5.40;99.90;;;;;;5087911;28;20443;-67
2023/12/15 04:32:28;;;;;;;35.17;25.70;;;5.40;99.90;;;;;;5087839;28;20525;-67
2023/12/15 04:34:55;;;;;;;38.73;26.83;;;5.40;99.90;;;;;;5088996;28;20547;-67
2023/12/15 04:37:22;;;;;;;38.37;25.10;;;5.40;99.90;;;;;;5090361;28;20519;-67
2023/12/15 04:39:49;;;;;;;38.23;23.13;;;5.40;99.90;;;;;;5090011;28;20544;-67
2023/12/15 04:42:18;;;;;;;38.43;26.43;;;5.40;99.90;;;;;;5082763;28;20775;-67
2023/12/15 04:44:45;;;;;;;36.83;24.00;;;5.40;99.90;;;;;;5078775;28;20457;-65
2023/12/15 04:47:12;;;;;;;34.80;24.07;;;5.40;99.90;;;;;;5076936;28;20459;-66
2023/12/15 04:49:40;;;;;;;33.17;23.33;;;5.40;99.90;;;;;;5078577;28;20464;-66
2023/12/15 04:52:07;;;;;;;33.40;22.30;;;5.50;99.90;;;;;;5078214;28;20894;-65
2023/12/15 04:54:34;;;;;;;35.10;23.37;;;5.50;99.90;;;;;;5078456;28;20461;-66
2023/12/15 04:57:01;;;;;;;34.30;23.83;;;5.50;99.90;;;;;;5078013;28;20500;-66
2023/12/15 04:59:30;;;;;;;36.43;23.30;;;5.50;99.90;;;;;;5078509;28;20480;-66
2023/12/15 05:01:57;;;;;;;32.93;23.50;;;5.50;99.90;;;;;;5078228;28;20457;-67
2023/12/15 05:04:24;;;;;;;34.50;23.17;;;5.50;99.90;;;;;;5079001;28;20438;-66
2023/12/15 05:06:52;;;;;;;28.13;21.20;;;5.40;99.90;;;;;;5079110;28;20886;-67
2023/12/15 05:09:27;;;;;;;30.43;21.03;;;5.40;99.90;;;;;;5179213;27;20263;-66
2023/12/15 05:11:55;;;;;;;28.83;18.80;;;5.50;99.90;;;;;;5158603;27;20478;-67
2023/12/15 05:14:22;;;;;;;29.23;20.73;;;5.40;99.90;;;;;;5158264;27;20465;-67
2023/12/15 05:16:49;;;;;;;28.27;19.40;;;5.40;99.90;;;;;;5157360;27;20458;-67
2023/12/15 05:19:17;;;;;;;41.67;31.80;;;5.40;99.90;;;;;;5156810;27;20464;-66
2023/12/15 05:21:44;;;;;;;28.70;21.30;;;5.50;99.90;;;;;;5157215;27;20431;-67
2023/12/15 05:24:11;;;;;;;23.27;18.00;;;5.50;99.90;;;;;;5157487;27;20454;-67
2023/12/15 05:26:40;;;;;;;21.73;16.67;;;5.50;99.90;;;;;;5157319;27;20439;-66
2023/12/15 05:29:07;;;;;;;24.57;17.60;;;5.50;99.90;;;;;;5157153;27;20525;-66
2023/12/15 05:31:34;;;;;;;22.77;16.10;;;5.50;99.90;;;;;;5157312;27;20458;-66
2023/12/15 05:34:01;;;;;;;20.13;15.57;;;5.50;99.90;;;;;;5157485;27;20458;-66
2023/12/15 05:36:29;;;;;;;24.13;16.90;;;5.50;99.90;;;;;;5157415;27;20496;-67
2023/12/15 05:38:56;;;;;;;25.23;17.30;;;5.60;99.90;;;;;;5158330;27;20549;-66
2023/12/15 05:41:23;;;;;;;21.90;16.80;;;5.60;99.90;;;;;;5158727;27;20468;-66
2023/12/15 05:43:52;;;;;;;26.23;18.67;;;5.60;99.90;;;;;;5158832;27;20883;-67
2023/12/15 05:46:20;;;;;;;29.67;19.17;;;5.60;99.90;;;;;;5159148;27;20427;-66
2023/12/15 05:48:47;;;;;;;25.93;19.07;;;5.60;99.90;;;;;;5158884;27;20942;-66
2023/12/15 05:51:14;;;;;;;27.50;19.17;;;5.60;99.90;;;;;;5158244;27;20432;-67
2023/12/15 05:53:42;;;;;;;28.77;19.97;;;5.60;99.90;;;;;;5160126;27;20469;-67
2023/12/15 05:56:10;;;;;;;30.63;20.07;;;5.60;99.90;;;;;;5160293;27;20493;-67
2023/12/15 05:58:37;;;;;;;29.33;21.07;;;5.60;99.90;;;;;;5159823;27;20454;-67
2023/12/15 06:01:06;;;;;;;31.77;22.07;;;5.70;99.90;;;;;;5160228;27;20428;-67
2023/12/15 06:03:34;;;;;;;28.60;19.40;;;5.60;99.90;;;;;;5159486;27;20523;-67
2023/12/15 06:06:01;;;;;;;30.40;21.37;;;5.60;99.90;;;;;;5159733;27;20517;-68
2023/12/15 06:08:28;;;;;;;31.90;20.53;;;5.60;99.90;;;;;;5160526;27;20504;-67
2023/12/15 06:10:55;;;;;;;34.20;22.27;;;5.60;99.90;;;;;;5162076;27;20459;-68
2023/12/15 06:13:22;;;;;;;34.00;23.00;;;5.60;99.90;;;;;;5161442;27;20773;-68
2023/12/15 06:15:50;;;;;;;39.57;25.10;;;5.60;99.90;;;;;;5161549;27;20548;-68
2023/12/15 06:18:18;;;;;;;37.80;23.43;;;5.70;99.90;;;;;;5161383;27;20849;-67
2023/12/15 06:20:45;;;;;;;35.60;23.47;;;5.70;99.90;;;;;;5148719;27;20454;-67
2023/12/15 06:23:13;;;;;;;42.07;26.20;;;5.70;99.90;;;;;;5146467;27;20461;-68
2023/12/15 06:25:40;;;;;;;41.63;28.70;;;5.80;99.90;;;;;;5146873;27;20541;-67
2023/12/15 06:28:09;;;;;;;45.23;28.00;;;5.70;99.90;;;;;;5145801;27;20953;-67
2023/12/15 06:30:37;;;;;;;39.97;25.10;;;5.70;99.90;;;;;;5147323;27;20458;-67
2023/12/15 06:33:06;;;;;;;39.90;25.27;;;5.70;99.90;;;;;;5146287;27;20527;-67
2023/12/15 06:35:34;;;;;;;40.17;23.33;;;5.70;99.90;;;;;;5145502;27;20462;-67
2023/12/15 06:38:01;;;;;;;45.50;25.87;;;5.80;99.90;;;;;;5146171;27;20879;-67
2023/12/15 06:40:29;;;;;;;55.70;30.93;;;5.80;99.90;;;;;;5145937;27;20455;-67
2023/12/15 06:42:56;;;;;;;43.73;27.23;;;5.80;99.90;;;;;;5145359;27;20497;-67
2023/12/15 06:45:23;;;;;;;48.30;30.50;;;5.80;99.90;;;;;;5143904;27;20524;-67
2023/12/15 06:47:50;;;;;;;52.87;27.20;;;5.70;99.90;;;;;;5144492;27;20497;-67
2023/12/15 06:50:18;;;;;;;48.30;28.57;;;5.80;99.90;;;;;;5144472;27;20481;-67
2023/12/15 06:52:49;;;;;;;50.17;31.00;;;5.80;99.90;;;;;;5144491;27;20550;-66
2023/12/15 06:55:16;;;;;;;70.50;38.43;;;5.80;99.90;;;;;;5143809;27;20888;-67
2023/12/15 06:57:43;;;;;;;40.20;25.70;;;5.80;99.90;;;;;;5142157;27;20518;-67
2023/12/15 07:00:12;;;;;;;55.33;27.20;;;5.80;99.90;;;;;;5143040;27;20539;-67
2023/12/15 07:02:39;;;;;;;45.90;31.60;;;5.80;99.90;;;;;;5144234;27;20458;-67
2023/12/15 07:05:07;;;;;;;52.57;35.17;;;5.80;99.90;;;;;;5144661;27;20503;-67
2023/12/15 07:07:35;;;;;;;71.20;40.00;;;5.90;99.90;;;;;;5144078;27;20575;-67
2023/12/15 07:10:04;;;;;;;61.70;47.37;;;5.90;99.90;;;;;;5144685;27;20483;-67
2023/12/15 07:12:31;;;;;;;54.90;35.77;;;5.90;99.90;;;;;;5146901;27;20493;-67
2023/12/15 07:14:58;;;;;;;51.90;29.40;;;5.90;99.90;;;;;;5146538;27;20470;-67
2023/12/15 07:17:25;;;;;;;49.27;28.80;;;5.90;99.90;;;;;;5147169;27;20479;-67
2023/12/15 07:19:53;;;;;;;65.07;29.57;;;5.90;99.90;;;;;;5147884;27;20436;-67
2023/12/15 07:22:20;;;;;;;52.03;27.60;;;5.90;99.90;;;;;;5146824;27;20537;-68
2023/12/15 07:24:48;;;;;;;42.43;26.33;;;5.80;99.90;;;;;;5146697;27;20713;-67
2023/12/15 07:27:16;;;;;;;44.70;26.43;;;5.80;99.90;;;;;;5146039;27;20471;-67
2023/12/15 07:29:44;;;;;;;49.67;26.17;;;5.80;99.90;;;;;;5146276;27;20585;-68
2023/12/15 07:32:11;;;;;;;58.83;28.90;;;5.80;99.90;;;;;;5145217;27;20511;-68
2023/12/15 07:34:38;;;;;;;50.17;27.20;;;5.80;99.90;;;;;;5146439;27;20505;-68
2023/12/15 07:37:05;;;;;;;53.70;27.70;;;5.80;99.90;;;;;;5145406;27;20502;-68
2023/12/15 07:39:33;;;;;;;52.43;26.90;;;5.90;99.90;;;;;;5145692;27;20459;-68
2023/12/15 07:42:00;;;;;;;42.23;25.90;;;5.90;99.90;;;;;;5145078;27;20542;-66
2023/12/15 07:44:29;;;;;;;60.70;28.17;;;5.90;99.90;;;;;;5139990;27;20463;-65
2023/12/15 07:46:57;;;;;;;46.80;26.97;;;5.90;99.90;;;;;;5139438;27;20490;-66
2023/12/15 07:49:24;;;;;;;56.33;30.53;;;6.10;99.90;;;;;;5138904;27;20517;-66
2023/12/15 07:51:52;;;;;;;54.67;29.47;;;6.20;99.90;;;;;;5138699;27;20537;-66
2023/12/15 07:54:19;;;;;;;68.93;29.47;;;6.20;99.90;;;;;;5138372;27;20541;-66
2023/12/15 07:56:47;;;;;;;45.40;25.67;;;6.20;99.90;;;;;;5135779;27;20932;-66
2023/12/15 07:59:14;;;;;;;99.67;32.63;;;6.10;99.90;;;;;;5139017;27;20482;-65
2023/12/15 08:01:49;;;;;;;78.77;27.80;;;6.20;99.90;;;;;;5139469;27;20547;-66
2023/12/15 08:04:17;;;;;;;46.47;26.80;;;6.20;99.90;;;;;;5139319;27;20553;-65
2023/12/15 08:06:46;;;;;;;70.67;27.80;;;6.20;99.90;;;;;;5139229;27;20528;-66
2023/12/15 08:09:13;;;;;;;72.77;31.80;;;6.20;99.90;;;;;;5138855;27;20612;-66
2023/12/15 08:11:41;;;;;;;51.63;28.93;;;6.30;99.90;;;;;;5138657;27;20461;-66
2023/12/15 08:14:09;;;;;;;46.67;28.53;;;6.20;99.90;;;;;;5138575;27;20465;-65
2023/12/15 08:16:36;;;;;;;45.37;26.93;;;6.30;99.90;;;;;;5138875;27;20494;-66
2023/12/15 08:19:07;;;;;;;43.17;26.07;;;6.30;99.90;;;;;;5138146;27;20486;-66
2023/12/15 08:21:34;;;;;;;49.77;25.67;;;6.30;99.90;;;;;;5139147;27;20469;-66
2023/12/15 08:24:02;;;;;;;41.27;25.50;;;6.40;99.90;;;;;;5139160;27;20537;-66
2023/12/15 08:26:30;;;;;;;43.07;27.20;;;6.30;99.90;;;;;;5138673;27;20758;-65
2023/12/15 08:28:57;;;;;;;38.83;24.03;;;6.40;99.90;;;;;;5130460;27;20482;-64
2023/12/15 08:31:26;;;;;;;44.40;26.43;;;6.30;99.90;;;;;;5127648;27;20506;-68
2023/12/15 08:33:54;;;;;;;46.83;25.50;;;6.30;99.90;;;;;;5123471;28;20558;-68
2023/12/15 08:36:23;;;;;;;55.73;25.50;;;6.20;99.90;;;;;;5124557;28;20479;-68
2023/12/15 08:38:50;;;;;;;64.90;24.90;;;6.20;99.90;;;;;;5125654;28;20860;-68
2023/12/15 08:41:17;;;;;;;77.80;26.60;;;6.20;99.90;;;;;;5126462;28;20490;-68
2023/12/15 08:43:45;;;;;;;86.23;26.20;;;6.20;99.90;;;;;;5127226;28;20522;-69
2023/12/15 08:46:12;;;;;;;49.57;24.33;;;6.20;99.90;;;;;;5126615;28;20467;-69
2023/12/15 08:48:40;;;;;;;67.70;26.90;;;6.20;99.90;;;;;;5127620;28;20522;-68
2023/12/15 08:51:07;;;;;;;60.27;26.60;;;6.10;99.90;;;;;;5127486;27;20467;-69
2023/12/15 08:53:36;;;;;;;53.63;26.70;;;6.20;99.90;;;;;;5124348;28;20482;-67
2023/12/15 08:56:04;;;;;;;81.47;27.53;;;6.20;99.90;;;;;;5119271;28;20521;-68
2023/12/15 08:58:31;;;;;;;82.67;29.80;;;6.20;99.90;;;;;;5119340;28;20834;-67
2023/12/15 09:00:59;;;;;;;78.40;31.43;;;6.20;99.90;;;;;;5120143;28;20459;-67
2023/12/15 09:03:26;;;;;;;74.63;29.10;;;6.30;99.90;;;;;;5120396;28;20554;-67
2023/12/15 09:05:53;;;;;;;61.70;28.07;;;6.30;99.90;;;;;;5120265;28;20467;-68
2023/12/15 09:08:21;;;;;;;56.80;27.00;;;6.30;99.90;;;;;;5120019;28;20483;-67
2023/12/15 09:10:50;;;;;;;79.30;26.47;;;6.30;99.90;;;;;;5119049;28;20495;-67
2023/12/15 09:13:18;;;;;;;74.37;26.87;;;6.40;99.90;;;;;;5119906;28;20784;-67
2023/12/15 09:15:46;;;;;;;71.03;27.73;;;6.40;99.90;;;;;;5119824;28;20512;-67
2023/12/15 09:18:13;;;;;;;51.57;25.67;;;6.50;99.90;;;;;;5118935;28;20455;-67
2023/12/15 09:20:41;;;;;;;49.23;24.70;;;6.50;99.90;;;;;;5118023;28;20514;-67
2023/12/15 09:23:09;;;;;;;55.57;24.87;;;6.40;99.90;;;;;;5118136;28;20519;-67
2023/12/15 09:25:36;;;;;;;65.30;25.70;;;6.50;99.90;;;;;;5117647;28;20512;-67
2023/12/15 09:28:05;;;;;;;93.83;27.03;;;6.60;99.90;;;;;;5117248;28;20512;-67
2023/12/15 09:30:32;;;;;;;69.33;24.97;;;6.60;99.90;;;;;;5116917;28;20883;-67
2023/12/15 09:33:00;;;;;;;69.50;25.97;;;6.60;99.90;;;;;;5117435;28;20460;-67
2023/12/15 09:35:28;;;;;;;67.60;26.47;;;6.60;99.90;;;;;;5119415;28;20957;-67
2023/12/15 09:37:55;;;;;;;43.93;22.70;;;6.60;99.90;;;;;;5138887;28;20954;-67
2023/12/15 09:40:24;;;;;;;47.77;24.47;;;6.60;99.90;;;;;;5138926;28;20557;-67
2023/12/15 09:42:51;;;;;;;69.90;28.70;;;6.60;99.90;;;;;;5139331;28;20864;-67
2023/12/15 09:45:21;;;;;;;52.80;24.20;;;6.60;99.90;;;;;;5138837;28;20557;-67
2023/12/15 09:47:48;;;;;;;81.77;28.63;;;6.60;99.90;;;;;;5138371;28;20526;-67
2023/12/15 09:50:18;;;;;;;55.73;28.17;;;6.70;99.90;;;;;;5138593;28;20876;-68
2023/12/15 09:52:47;;;;;;;65.87;26.30;;;6.70;99.90;;;;;;5137598;27;20462;-68
2023/12/15 09:55:15;;;;;;;61.30;26.43;;;6.70;99.90;;;;;;5140233;27;20494;-67
2023/12/15 09:57:43;;;;;;;62.93;24.90;;;6.80;99.90;;;;;;5141647;27;20447;-67
2023/12/15 10:00:12;;;;;;;61.07;25.37;;;6.70;99.90;;;;;;5141095;27;20788;-68
2023/12/15 10:02:42;;;;;;;67.90;27.57;;;6.70;99.90;;;;;;5141904;27;20459;-68
2023/12/15 10:05:11;;;;;;;79.03;25.67;;;6.70;99.90;;;;;;5141267;27;20553;-68
2023/12/15 10:07:40;;;;;;;71.57;27.47;;;6.70;99.90;;;;;;5140838;27;20491;-68
2023/12/15 10:10:08;;;;;;;87.27;33.07;;;6.80;99.90;;;;;;5141599;27;20490;-68
2023/12/15 10:12:36;;;;;;;61.60;26.30;;;6.90;99.90;;;;;;5141097;27;20454;-68
2023/12/15 10:15:05;;;;;;;52.70;27.57;;;6.90;99.90;;;;;;5136652;27;20934;-68
2023/12/15 10:17:32;;;;;;;94.63;32.33;;;6.80;99.90;;;;;;5140095;27;20880;-68
2023/12/15 10:20:09;;;;;;;63.80;27.87;;;6.80;99.90;;;;;;5139127;27;20450;-68
2023/12/15 10:22:39;;;;;;;67.20;27.03;;;6.80;99.90;;;;;;5138489;27;20463;-69
2023/12/15 10:25:17;;;;;;;87.13;29.90;;;6.90;99.90;;;;;;5138612;27;20455;-68
2023/12/15 10:27:45;;;;;;;59.13;26.73;;;6.90;99.90;;;;;;5139369;27;20469;-69
2023/12/15 10:30:13;;;;;;;51.43;24.63;;;6.90;99.90;;;;;;5138571;27;20783;-67
2023/12/15 10:32:41;;;;;;;60.43;27.40;;;6.90;99.90;;;;;;5139454;27;20494;-68
2023/12/15 10:35:12;;;;;;;51.87;25.77;;;6.90;99.90;;;;;;5141162;27;20534;-69
2023/12/15 10:37:41;;;;;;;54.00;24.87;;;6.90;99.90;;;;;;5140868;27;20498;-69
2023/12/15 10:40:09;;;;;;;53.70;26.10;;;7.00;99.90;;;;;;5137288;27;20471;-68
2023/12/15 10:42:37;;;;;;;48.60;25.77;;;7.00;99.90;;;;;;5131614;27;20468;-68
2023/12/15 10:45:06;;;;;;;49.00;25.07;;;6.90;99.90;;;;;;5134817;27;20501;-67
2023/12/15 10:47:34;;;;;;;54.00;25.70;;;6.90;99.90;;;;;;5138204;27;20437;-68
2023/12/15 10:50:02;;;;;;;58.13;27.33;;;6.90;99.90;;;;;;5138812;27;20494;-68
2023/12/15 10:52:33;;;;;;;46.67;27.60;;;6.90;99.90;;;;;;5137731;27;20458;-68
2023/12/15 10:55:03;;;;;;;54.10;25.70;;;7.00;99.90;;;;;;5138466;27;20680;-68
2023/12/15 10:57:32;;;;;;;57.47;27.13;;;7.00;99.90;;;;;;5140047;27;20431;-68
2023/12/15 11:00:00;;;;;;;50.53;25.33;;;7.10;99.90;;;;;;5139185;27;20516;-68
2023/12/15 11:02:30;;;;;;;57.20;28.23;;;7.10;99.90;;;;;;5139016;27;20904;-68
2023/12/15 11:05:00;;;;;;;48.93;26.10;;;7.00;99.90;;;;;;5139570;27;20463;-68
2023/12/15 11:07:29;;;;;;;49.43;25.43;;;7.10;99.90;;;;;;5140001;27;20520;-68
2023/12/15 11:09:59;;;;;;;47.23;27.73;;;7.20;99.90;;;;;;5140382;27;20589;-68
2023/12/15 11:12:31;;;;;;;45.90;25.43;;;7.20;99.90;;;;;;5140363;27;20458;-69
2023/12/15 11:15:02;;;;;;;54.60;28.53;;;7.20;99.90;;;;;;5140267;27;20458;-68
2023/12/15 11:17:30;;;;;;;50.90;26.10;;;7.20;99.90;;;;;;5140192;27;20884;-68
2023/12/15 11:20:06;;;;;;;55.40;29.83;;;7.20;99.90;;;;;;5140244;27;20776;-69
2023/12/15 11:22:48;;;;;;;47.37;26.73;;;7.30;99.90;;;;;;5140075;27;20458;-68
2023/12/15 11:25:19;;;;;;;47.13;26.73;;;7.30;99.90;;;;;;5139933;27;20472;-68
2023/12/15 11:28:09;;;;;;;46.60;25.30;;;7.20;99.90;;;;;;5136436;27;20745;-68
2023/12/15 11:30:37;;;;;;;51.43;27.40;;;7.30;99.90;;;;;;5113057;28;20495;-68
2023/12/15 11:33:47;;;;;;;51.97;26.20;;;7.30;99.90;;;;;;5123263;27;20562;-68
2023/12/15 11:36:15;;;;;;;53.87;26.87;;;7.40;99.90;;;;;;5114702;27;20474;-68
2023/12/15 11:38:47;;;;;;;53.90;27.37;;;7.50;99.90;;;;;;5137595;27;20749;-69
2023/12/15 11:41:19;;;;;;;48.47;27.60;;;7.60;99.90;;;;;;5138017;27;20433;-69
2023/12/15 11:43:46;;;;;;;49.90;26.37;;;7.70;99.90;;;;;;5138261;27;20783;-69
2023/12/15 11:46:13;;;;;;;55.70;28.33;;;7.80;99.90;;;;;;5137748;27;20558;-68
2023/12/15 11:48:43;;;;;;;52.13;32.90;;;7.80;99.90;;;;;;5137033;27;20451;-68
2023/12/15 11:51:10;;;;;;;57.30;31.33;;;7.80;99.90;;;;;;5137291;27;20543;-69
2023/12/15 11:53:41;;;;;;;51.13;28.80;;;7.90;99.90;;;;;;5139145;27;20458;-68
2023/12/15 11:56:10;;;;;;;48.27;29.20;;;7.90;99.90;;;;;;5139317;27;20459;-68
2023/12/15 11:58:39;;;;;;;46.30;28.67;;;8.00;99.90;;;;;;5138024;27;20558;-69
2023/12/15 12:01:08;;;;;;;57.63;34.60;;;8.00;99.90;;;;;;5138428;27;20451;-68
2023/12/15 12:03:36;;;;;;;59.07;35.50;;;8.00;99.90;;;;;;5136581;27;20473;-68
2023/12/15 12:06:05;;;;;;;72.40;37.40;;;8.10;99.90;;;;;;5138241;27;20454;-69
2023/12/15 12:08:34;;;;;;;46.20;29.03;;;8.10;99.90;;;;;;5138540;27;20584;-68
2023/12/15 12:11:01;;;;;;;50.63;29.03;;;8.10;99.90;;;;;;5138372;27;20479;-68
2023/12/15 12:13:33;;;;;;;43.10;27.00;;;8.00;99.90;;;;;;5137959;27;20460;-69
2023/12/15 12:16:02;;;;;;;45.10;26.17;;;8.00;99.90;;;;;;5138949;27;20465;-68
2023/12/15 12:18:30;;;;;;;52.73;29.37;;;8.10;99.90;;;;;;5138470;27;20456;-69
2023/12/15 12:21:02;;;;;;;46.70;27.00;;;8.10;99.90;;;;;;5138332;27;20823;-68
2023/12/15 12:23:30;;;;;;;39.70;25.47;;;8.10;99.90;;;;;;5138872;27;20462;-69
2023/12/15 12:25:58;;;;;;;47.60;27.80;;;8.10;99.90;;;;;;5137172;27;20529;-68
2023/12/15 12:28:27;;;;;;;49.83;28.50;;;8.10;99.90;;;;;;5138807;27;20601;-69
2023/12/15 12:30:54;;;;;;;46.63;26.47;;;8.10;99.90;;;;;;5138564;27;20490;-68
2023/12/15 12:33:24;;;;;;;45.03;25.70;;;8.00;99.90;;;;;;5137857;27;20454;-69
2023/12/15 12:35:52;;;;;;;44.30;27.10;;;7.90;99.90;;;;;;5137819;27;20806;-68
2023/12/15 12:38:19;;;;;;;44.20;26.47;;;7.90;99.90;;;;;;5136930;27;20456;-68
2023/12/15 12:40:47;;;;;;;56.40;27.33;;;8.00;99.90;;;;;;5137170;27;20459;-68